Time;durP1;ratioP1;P1;durP2;ratioP2;P2;SDS_P1;SDS_P2;PMS_P1;PMS_P2;Temp;Humidity;BMP_temperature;BMP_pressure;BME280_temperature;BME280_humidity;BME280_pressure;Samples;Min_cycle;Max_cycle;Signal;HPM_P1;HPM_P2
2021/12/26 00:00:48;;;;;;;4.72;1.80;;;;;;;-5.15;69.61;100909.69;5033782;28;20045;-54
2021/12/26 00:03:23;;;;;;;6.35;1.73;;;;;;;-5.19;70.02;100913.09;5030530;28;20049;-52
2021/12/26 00:05:52;;;;;;;6.40;2.10;;;;;;;-5.11;70.03;100907.09;5028706;28;20389;-50
2021/12/26 00:08:20;;;;;;;6.55;1.95;;;;;;;-5.16;70.10;100913.94;5027592;28;20065;-52
2021/12/26 00:10:49;;;;;;;5.03;2.00;;;;;;;-5.22;69.37;100905.38;5039168;28;20049;-54
2021/12/26 00:13:19;;;;;;;4.53;2.03;;;;;;;-5.15;69.08;100910.53;5048610;28;20579;-53
2021/12/26 00:15:48;;;;;;;4.47;2.25;;;;;;;-5.13;68.60;100907.97;5050967;28;20045;-53
2021/12/26 00:18:16;;;;;;;3.47;1.63;;;;;;;-5.19;68.46;100900.28;5051307;28;20149;-50
2021/12/26 00:20:47;;;;;;;5.97;1.95;;;;;;;-5.24;69.47;100907.09;5049721;28;20053;-52
2021/12/26 00:23:16;;;;;;;3.03;1.52;;;;;;;-5.26;70.04;100913.06;5047413;28;20377;-54
2021/12/26 00:25:45;;;;;;;3.25;1.90;;;;;;;-5.26;69.78;100912.22;5050324;28;20484;-53
2021/12/26 00:28:14;;;;;;;2.55;1.58;;;;;;;-5.24;69.63;100910.50;5049053;28;20053;-53
2021/12/26 00:30:43;;;;;;;3.75;1.40;;;;;;;-5.30;70.03;100913.94;5048765;28;20053;-54
2021/12/26 00:33:11;;;;;;;4.25;1.55;;;;;;;-5.35;69.81;100912.22;5050438;28;20047;-54
2021/12/26 00:35:40;;;;;;;3.67;1.42;;;;;;;-5.34;69.63;100904.53;5050564;28;20040;-53
2021/12/26 00:38:12;;;;;;;4.88;1.88;;;;;;;-5.34;70.15;100899.41;5050725;28;20060;-52
2021/12/26 00:40:42;;;;;;;4.40;2.10;;;;;;;-5.30;70.32;100895.13;5051053;28;20048;-52
2021/12/26 00:43:10;;;;;;;3.38;1.70;;;;;;;-5.29;70.56;100892.56;5050818;28;20053;-53
2021/12/26 00:45:39;;;;;;;5.20;1.65;;;;;;;-5.22;69.61;100898.56;5051217;28;20041;-53
2021/12/26 00:48:08;;;;;;;5.22;2.20;;;;;;;-5.31;69.61;100895.97;5054805;28;20091;-49
2021/12/26 00:50:40;;;;;;;4.90;1.58;;;;;;;-5.34;69.92;100896.84;5054819;28;20107;-52
2021/12/26 00:53:09;;;;;;;;;;;;;;;-5.23;69.36;100903.69;5051842;28;20144;-54
2021/12/26 00:55:38;;;;;;;5.10;2.13;;;;;;;-5.31;68.93;100899.38;5052434;28;19968;-53
2021/12/26 00:58:07;;;;;;;4.55;1.65;;;;;;;-5.34;69.55;100896.84;5054728;28;20389;-51
2021/12/26 01:00:38;;;;;;;2.53;1.30;;;;;;;-5.27;70.07;100895.97;5054402;28;20052;-53
2021/12/26 01:03:07;;;;;;;5.22;1.50;;;;;;;-5.26;68.93;100886.59;5052991;28;20309;-52
2021/12/26 01:05:37;;;;;;;2.92;1.40;;;;;;;-5.36;69.61;100880.56;5051384;28;20087;-52
2021/12/26 01:08:09;;;;;;;6.80;2.03;;;;;;;-5.38;70.32;100884.03;5054354;28;20056;-51
2021/12/26 01:10:40;;;;;;;5.18;1.92;;;;;;;-5.41;70.56;100876.31;5054566;28;20049;-52
2021/12/26 01:13:17;;;;;;;3.42;1.73;;;;;;;-5.41;69.90;100882.31;5052877;28;20045;-54
2021/12/26 01:15:47;;;;;;;6.25;2.40;;;;;;;-5.43;70.29;100873.75;5054046;28;20052;-51
2021/12/26 01:18:17;;;;;;;5.75;1.85;;;;;;;-5.42;70.08;100875.47;5053710;28;20055;-53
2021/12/26 01:20:51;;;;;;;3.95;1.60;;;;;;;-5.44;70.37;100866.91;5053647;28;20106;-51
2021/12/26 01:23:21;;;;;;;3.90;1.55;;;;;;;-5.34;68.90;100868.63;5053869;28;20049;-51
2021/12/26 01:25:51;;;;;;;3.70;1.88;;;;;;;-5.35;69.95;100871.19;5054217;28;20606;-52
2021/12/26 01:28:22;;;;;;;8.52;1.88;;;;;;;-5.37;69.40;100866.06;5053849;28;20063;-50
2021/12/26 01:30:51;;;;;;;4.72;1.70;;;;;;;-5.37;69.29;100873.75;5053814;28;20060;-51
2021/12/26 01:33:21;;;;;;;5.15;1.60;;;;;;;-5.38;69.17;100871.19;5053552;28;20483;-48
2021/12/26 01:35:49;;;;;;;6.13;2.22;;;;;;;-5.32;69.52;100869.47;5053941;28;20048;-49
2021/12/26 01:38:18;;;;;;;3.60;1.77;;;;;;;-5.37;69.72;100884.00;5053712;28;20048;-49
2021/12/26 01:40:50;;;;;;;4.55;2.00;;;;;;;-5.32;68.97;100878.88;5053962;28;20049;-48
2021/12/26 01:43:23;;;;;;;4.10;2.03;;;;;;;-5.37;69.50;100886.56;5053717;28;20056;-53
2021/12/26 01:45:52;;;;;;;3.60;1.60;;;;;;;-5.39;69.57;100884.88;5053612;28;20044;-48
2021/12/26 01:48:21;;;;;;;6.68;1.80;;;;;;;-5.34;69.03;100891.69;5051988;28;20392;-51
2021/12/26 01:50:51;;;;;;;4.15;1.70;;;;;;;-5.38;68.83;100891.72;5050913;28;20083;-49
2021/12/26 01:53:23;;;;;;;4.15;1.88;;;;;;;-5.39;69.10;100888.28;5052352;28;20075;-49
2021/12/26 01:55:53;;;;;;;2.50;1.40;;;;;;;-5.39;68.88;100890.84;5053333;28;20503;-50
2021/12/26 01:58:25;;;;;;;4.00;1.88;;;;;;;-5.41;68.85;100887.44;5049925;28;20462;-49
2021/12/26 02:00:55;;;;;;;5.47;1.83;;;;;;;-5.39;69.10;100884.88;5050752;28;20052;-48
2021/12/26 02:03:24;;;;;;;4.75;1.50;;;;;;;-5.29;68.63;100881.44;5053132;28;20060;-50
2021/12/26 02:05:52;;;;;;;4.10;1.65;;;;;;;-5.40;69.52;100873.72;5053190;28;20061;-50
2021/12/26 02:08:20;;;;;;;5.38;2.00;;;;;;;-5.46;69.55;100876.31;5053059;28;20049;-49
2021/12/26 02:10:48;;;;;;;2.38;1.30;;;;;;;-5.44;68.77;100878.03;5052592;28;20122;-51
2021/12/26 02:13:17;;;;;;;3.25;1.60;;;;;;;-5.41;68.54;100874.59;5050558;28;20049;-51
2021/12/26 02:15:46;;;;;;;4.13;1.80;;;;;;;-5.47;69.04;100872.03;5051742;28;20056;-52
2021/12/26 02:18:15;;;;;;;5.55;1.90;;;;;;;-5.49;69.64;100876.31;5053161;28;20060;-49
2021/12/26 02:20:59;;;;;;;6.00;1.95;;;;;;;-5.43;69.00;100871.19;5052876;28;20448;-53
2021/12/26 02:23:33;;;;;;;5.10;2.00;;;;;;;-5.47;68.97;100870.34;5052754;28;20053;-52
2021/12/26 02:28:52;;;;;;;5.30;1.75;;;;;;;-5.44;69.10;100864.31;5052243;28;20053;-52
2021/12/26 02:31:20;;;;;;;6.35;1.83;;;;;;;-5.48;69.56;100867.75;5052177;28;20095;-49
2021/12/26 02:33:48;;;;;;;6.18;1.83;;;;;;;-5.47;68.68;100869.47;5050037;28;20530;-50
2021/12/26 02:36:17;;;;;;;4.28;1.85;;;;;;;-5.49;69.13;100866.91;5049387;28;20041;-53
2021/12/26 02:38:46;;;;;;;3.97;1.98;;;;;;;-5.45;68.87;100867.78;5051205;28;20059;-50
2021/12/26 02:41:14;;;;;;;3.55;1.70;;;;;;;-5.52;68.59;100868.59;5052680;28;20057;-52
2021/12/26 02:43:42;;;;;;;6.50;2.08;;;;;;;-5.49;68.39;100858.38;5052451;28;20541;-51
2021/12/26 02:46:10;;;;;;;4.97;1.63;;;;;;;-5.48;68.60;100860.06;5052467;28;20094;-50
2021/12/26 02:48:39;;;;;;;3.42;1.70;;;;;;;-5.51;68.96;100850.66;5052265;28;20037;-51
2021/12/26 02:51:08;;;;;;;7.25;3.28;;;;;;;-5.41;68.40;100850.66;5052464;28;20041;-51
2021/12/26 02:53:37;;;;;;;3.92;1.98;;;;;;;-5.48;69.20;100858.38;5052036;28;20045;-50
2021/12/26 02:56:05;;;;;;;5.25;1.85;;;;;;;-5.53;68.81;100843.84;5052106;28;20044;-52
2021/12/26 02:58:34;;;;;;;8.25;1.95;;;;;;;-5.50;68.16;100844.69;5051989;28;20075;-52
2021/12/26 03:01:07;;;;;;;7.63;2.03;;;;;;;-5.44;68.72;100847.25;5052328;28;20403;-50
2021/12/26 03:03:36;;;;;;;4.60;1.73;;;;;;;-5.43;68.32;100842.97;5050632;28;20462;-51
2021/12/26 03:06:11;;;;;;;5.55;2.00;;;;;;;-5.48;67.85;100837.84;5052090;28;20477;-52
2021/12/26 03:08:41;;;;;;;6.85;1.90;;;;;;;-5.57;68.41;100839.56;5051548;28;20045;-51
2021/12/26 03:11:09;;;;;;;5.32;1.80;;;;;;;-5.55;68.07;100840.41;5052044;28;20045;-50
2021/12/26 03:13:37;;;;;;;3.08;1.60;;;;;;;-5.57;67.75;100835.28;5051787;28;20052;-50
2021/12/26 03:16:05;;;;;;;6.60;1.55;;;;;;;-5.55;68.36;100840.41;5050429;28;20484;-50
2021/12/26 03:18:33;;;;;;;3.83;1.45;;;;;;;-5.50;67.99;100846.41;5049313;28;20041;-53
2021/12/26 03:21:02;;;;;;;5.00;2.08;;;;;;;-5.51;68.01;100845.53;5051344;28;20045;-50
2021/12/26 03:23:30;;;;;;;4.95;1.67;;;;;;;-5.56;67.69;100833.56;5051048;28;20594;-51
2021/12/26 03:26:04;;;;;;;3.83;1.70;;;;;;;-5.62;68.06;100850.66;5049371;28;20048;-53
2021/12/26 03:28:33;;;;;;;3.70;1.50;;;;;;;-5.52;67.60;100842.97;5048876;28;20049;-52
2021/12/26 03:31:01;;;;;;;5.07;1.88;;;;;;;-5.63;68.30;100832.69;5051661;28;20033;-49
2021/12/26 03:33:30;;;;;;;4.88;1.67;;;;;;;-5.47;68.02;100837.00;5051396;28;20041;-50
2021/12/26 03:35:58;;;;;;;7.07;2.10;;;;;;;-5.58;68.08;100836.13;5051701;28;20052;-51
2021/12/26 03:38:28;;;;;;;5.07;2.08;;;;;;;-5.57;68.40;100844.69;5051913;28;20041;-51
2021/12/26 03:40:58;;;;;;;6.68;1.70;;;;;;;-5.64;68.25;100844.66;5051639;28;20428;-50
2021/12/26 03:43:27;;;;;;;6.63;2.15;;;;;;;-5.56;67.63;100836.13;5051696;28;20059;-54
2021/12/26 03:45:55;;;;;;;4.20;1.60;;;;;;;-5.64;68.30;100844.66;5051502;28;20567;-51
2021/12/26 03:48:26;;;;;;;4.97;1.75;;;;;;;-5.63;68.05;100837.81;5050862;28;20041;-54
2021/12/26 03:50:54;;;;;;;4.22;1.80;;;;;;;-5.49;68.02;100843.00;5049362;28;20122;-53
2021/12/26 03:53:22;;;;;;;5.47;2.00;;;;;;;-5.65;67.70;100842.94;5049375;28;20053;-52
2021/12/26 03:55:51;;;;;;;4.20;1.92;;;;;;;-5.66;68.50;100842.94;5050209;28;20114;-53
2021/12/26 03:58:21;;;;;;;3.63;1.48;;;;;;;-5.59;67.98;100839.53;5049605;28;20589;-54
2021/12/26 04:00:50;;;;;;;5.55;1.85;;;;;;;-5.61;67.40;100841.25;5048750;28;20127;-52
2021/12/26 04:03:19;;;;;;;5.53;1.58;;;;;;;-5.63;68.09;100833.56;5041998;28;20051;-50
2021/12/26 04:05:47;;;;;;;3.85;1.50;;;;;;;-5.59;67.49;100831.84;5043175;28;20053;-49
2021/12/26 04:08:15;;;;;;;3.53;1.73;;;;;;;-5.63;67.23;100841.25;5044437;28;20729;-52
2021/12/26 04:10:44;;;;;;;4.03;1.77;;;;;;;-5.68;67.11;100837.81;5048992;28;20041;-49
2021/12/26 04:13:12;;;;;;;3.85;1.35;;;;;;;-5.78;67.95;100838.66;5050079;28;20069;-54
2021/12/26 04:15:41;;;;;;;5.22;1.63;;;;;;;-5.69;68.08;100841.22;5048204;28;20094;-51
2021/12/26 04:18:10;;;;;;;4.07;1.50;;;;;;;-5.60;67.27;100832.72;5050495;28;20041;-53
2021/12/26 04:20:38;;;;;;;4.63;1.88;;;;;;;-5.71;67.60;100826.69;5048124;28;20045;-48
2021/12/26 04:23:06;;;;;;;5.25;1.80;;;;;;;-5.70;67.59;100824.16;5049487;28;20061;-48
2021/12/26 04:25:34;;;;;;;5.07;1.98;;;;;;;-5.76;67.95;100824.16;5051647;28;20098;-52
2021/12/26 04:28:02;;;;;;;5.93;2.13;;;;;;;-5.72;67.85;100825.00;5045264;28;20037;-53
2021/12/26 04:30:31;;;;;;;5.85;2.10;;;;;;;-5.75;68.23;100820.75;5051628;28;20053;-52
2021/12/26 04:33:01;;;;;;;6.40;2.10;;;;;;;-5.74;67.63;100821.56;5041236;28;20049;-49
2021/12/26 04:35:29;;;;;;;5.13;1.60;;;;;;;-5.72;67.51;100825.00;5050891;28;20068;-52
2021/12/26 04:37:57;;;;;;;6.38;1.80;;;;;;;-5.71;68.18;100817.31;5049790;28;20052;-54
2021/12/26 04:40:25;;;;;;;4.22;2.03;;;;;;;-5.73;67.95;100816.44;5041817;28;20045;-50
2021/12/26 04:42:53;;;;;;;5.00;2.00;;;;;;;-5.68;67.56;100821.59;5052335;28;20107;-53
2021/12/26 04:45:22;;;;;;;4.50;1.80;;;;;;;-5.68;68.21;100816.47;5044726;28;20049;-54
2021/12/26 04:47:50;;;;;;;6.28;2.55;;;;;;;-5.73;68.18;100816.44;5051041;28;20049;-51
2021/12/26 04:50:23;;;;;;;6.63;2.30;;;;;;;-5.66;68.03;100805.38;5049038;28;20059;-52
2021/12/26 04:52:52;;;;;;;4.32;1.83;;;;;;;-5.68;67.72;100806.22;5048858;28;20143;-51
2021/12/26 04:55:23;;;;;;;5.68;1.88;;;;;;;-5.67;67.81;100803.66;5042553;28;20148;-51
2021/12/26 04:57:52;;;;;;;4.00;1.70;;;;;;;-5.77;68.58;100797.69;5051580;28;20057;-52
2021/12/26 05:00:24;;;;;;;5.20;2.38;;;;;;;-5.82;68.35;100795.94;5052265;28;20473;-50
2021/12/26 05:02:52;;;;;;;;;;;;;;;-5.75;68.25;100796.81;5052950;28;20041;-48
2021/12/26 05:05:22;;;;;;;4.95;1.70;;;;;;;-5.63;67.63;100795.13;5049549;28;19970;-52
2021/12/26 05:07:50;;;;;;;5.53;1.90;;;;;;;-5.74;68.68;100806.22;5051777;28;20484;-49
2021/12/26 05:10:19;;;;;;;3.92;1.85;;;;;;;-5.69;68.27;100799.38;5052550;28;20129;-51
2021/12/26 05:12:47;;;;;;;5.95;1.70;;;;;;;-5.73;68.11;100805.34;5045365;28;20203;-50
2021/12/26 05:15:21;;;;;;;2.92;1.45;;;;;;;-5.78;68.10;100800.22;5044437;28;20065;-51
2021/12/26 05:17:50;;;;;;;5.13;1.63;;;;;;;-5.73;68.46;100798.50;5048504;28;20045;-51
2021/12/26 05:20:19;;;;;;;5.13;1.70;;;;;;;-5.74;67.81;100790.84;5053313;28;20052;-52
2021/12/26 05:22:49;;;;;;;5.45;1.90;;;;;;;-5.69;67.88;100786.56;5050863;28;20503;-52
2021/12/26 05:25:18;;;;;;;5.60;1.88;;;;;;;-5.73;68.17;100784.88;5057456;28;20113;-49
2021/12/26 05:27:46;;;;;;;6.60;2.00;;;;;;;-5.69;68.26;100784.84;5037485;28;20436;-52
2021/12/26 05:30:17;;;;;;;3.90;1.60;;;;;;;-5.79;68.90;100784.00;5042070;28;20045;-50
2021/12/26 05:32:46;;;;;;;4.18;1.70;;;;;;;-5.83;68.91;100779.72;5042038;28;20037;-49
2021/12/26 05:35:16;;;;;;;4.38;1.80;;;;;;;-5.79;68.88;100768.63;5044451;28;20491;-49
2021/12/26 05:37:45;;;;;;;7.05;1.70;;;;;;;-5.78;68.62;100775.47;5048014;28;20110;-51
2021/12/26 05:40:16;;;;;;;3.80;2.10;;;;;;;-5.79;68.65;100778.03;5049132;28;20094;-49
2021/12/26 05:42:44;;;;;;;5.10;1.90;;;;;;;-5.69;68.29;100778.88;5033640;28;20049;-50
2021/12/26 05:45:13;;;;;;;5.63;2.00;;;;;;;-5.73;68.83;100783.13;5031392;28;20061;-53
2021/12/26 05:47:42;;;;;;;6.55;2.10;;;;;;;-5.68;68.06;100781.44;5030674;28;20049;-50
2021/12/26 05:50:12;;;;;;;3.92;1.75;;;;;;;-5.70;68.63;100772.91;5031558;28;20044;-49
2021/12/26 05:52:41;;;;;;;4.47;1.88;;;;;;;-5.69;68.24;100773.75;5033481;28;20122;-50
2021/12/26 05:55:10;;;;;;;3.78;1.65;;;;;;;-5.62;68.43;100773.78;5031569;28;20530;-49
2021/12/26 05:57:40;;;;;;;4.93;2.10;;;;;;;-5.58;68.11;100777.16;5030864;28;20061;-50
2021/12/26 06:00:17;;;;;;;5.00;1.88;;;;;;;-5.59;68.65;100778.03;5031923;28;20144;-52
2021/12/26 06:02:46;;;;;;;3.33;1.42;;;;;;;-5.51;67.46;100775.47;5031032;28;20500;-51
2021/12/26 06:05:14;;;;;;;3.17;1.63;;;;;;;-5.48;67.56;100776.34;5047476;28;20556;-48
2021/12/26 06:07:42;;;;;;;4.65;1.73;;;;;;;-5.41;67.11;100774.63;5033172;28;20065;-51
2021/12/26 06:10:10;;;;;;;3.63;1.85;;;;;;;-5.39;66.67;100772.06;5033538;28;20699;-53
2021/12/26 06:12:40;;;;;;;5.70;1.90;;;;;;;-5.29;66.56;100769.50;5033029;28;20041;-48
2021/12/26 06:15:13;;;;;;;4.10;1.63;;;;;;;-5.35;66.39;100769.47;5033216;28;20061;-49
2021/12/26 06:17:41;;;;;;;3.42;1.63;;;;;;;-5.29;66.50;100774.63;5033418;28;20455;-52
2021/12/26 06:20:14;;;;;;;3.78;1.55;;;;;;;-5.28;67.02;100775.47;5033089;28;20068;-51
2021/12/26 06:22:43;;;;;;;2.78;1.40;;;;;;;-5.24;67.13;100773.75;5032867;28;20057;-48
2021/12/26 06:25:12;;;;;;;2.95;1.48;;;;;;;-5.22;66.28;100774.59;5033101;28;20053;-50
2021/12/26 06:27:42;;;;;;;4.28;1.77;;;;;;;-5.18;66.15;100766.03;5032914;28;20064;-50
2021/12/26 06:30:11;;;;;;;3.90;1.80;;;;;;;-5.15;66.43;100766.91;5032937;28;20562;-52
2021/12/26 06:32:39;;;;;;;3.78;1.70;;;;;;;-5.08;66.11;100762.63;5032749;28;20049;-51
2021/12/26 06:35:09;;;;;;;3.70;1.60;;;;;;;-4.95;66.23;100766.88;5032915;28;20115;-50
2021/12/26 06:37:38;;;;;;;3.30;1.30;;;;;;;-5.04;65.52;100759.19;5032784;28;20729;-50
2021/12/26 06:40:08;;;;;;;4.65;1.77;;;;;;;-5.05;66.55;100760.03;5032804;28;20057;-51
2021/12/26 06:42:40;;;;;;;4.07;1.60;;;;;;;-5.04;66.05;100759.19;5032821;28;20045;-52
2021/12/26 06:45:14;;;;;;;3.92;1.90;;;;;;;-5.02;65.06;100757.44;5032174;28;20053;-52
2021/12/26 06:47:46;;;;;;;3.67;1.65;;;;;;;-4.99;66.09;100756.59;5032644;28;20083;-50
2021/12/26 06:50:14;;;;;;;3.13;1.70;;;;;;;-5.01;66.71;100756.59;5032843;28;20549;-51
2021/12/26 06:52:42;;;;;;;4.78;1.70;;;;;;;-4.93;66.74;100747.19;5032020;28;20079;-53
2021/12/26 06:55:10;;;;;;;3.45;1.42;;;;;;;-4.88;65.98;100748.88;5031883;28;20037;-52
2021/12/26 06:57:40;;;;;;;3.65;1.60;;;;;;;-4.84;65.96;100746.31;5029962;28;20128;-50
2021/12/26 07:00:14;;;;;;;3.63;1.60;;;;;;;-4.85;66.66;100751.41;5029250;28;20570;-52
2021/12/26 07:02:42;;;;;;;3.30;1.40;;;;;;;-4.86;66.51;100752.31;5032229;28;20048;-53
2021/12/26 07:05:12;;;;;;;4.60;1.35;;;;;;;-4.81;66.21;100761.69;5032386;28;20049;-50
2021/12/26 07:07:41;;;;;;;3.30;1.27;;;;;;;-4.82;67.08;100759.13;5032199;28;20099;-52
2021/12/26 07:10:10;;;;;;;6.55;1.27;;;;;;;-4.79;67.35;100753.97;5030391;28;20361;-52
2021/12/26 07:12:40;;;;;;;4.32;1.95;;;;;;;-4.76;67.70;100753.97;5029970;28;20042;-53
2021/12/26 07:15:10;;;;;;;2.72;1.40;;;;;;;-4.78;67.89;100753.13;5032133;28;20038;-52
2021/12/26 07:17:38;;;;;;;4.93;2.00;;;;;;;-4.68;68.15;100752.22;5030840;28;20782;-51
2021/12/26 07:20:08;;;;;;;3.58;1.20;;;;;;;-4.62;67.92;100748.78;5029059;28;20053;-53
2021/12/26 07:22:36;;;;;;;4.85;1.83;;;;;;;-4.61;67.38;100747.91;5030564;28;20092;-51
2021/12/26 07:25:05;;;;;;;3.92;1.70;;;;;;;-4.63;67.78;100749.66;5031941;28;20550;-50
2021/12/26 07:27:33;;;;;;;3.78;1.58;;;;;;;-4.58;67.54;100758.19;5031860;28;20050;-48
2021/12/26 07:30:03;;;;;;;3.05;1.23;;;;;;;-4.56;68.37;100763.31;5031915;28;20469;-51
2021/12/26 07:32:33;;;;;;;3.95;1.60;;;;;;;-4.52;68.05;100754.75;5030296;28;20495;-49
2021/12/26 07:35:01;;;;;;;6.10;1.80;;;;;;;-4.48;68.21;100761.56;5044652;28;20061;-52
2021/12/26 07:37:30;;;;;;;5.43;1.70;;;;;;;-4.50;67.36;100761.59;5031198;28;20060;-50
2021/12/26 07:39:58;;;;;;;4.10;1.65;;;;;;;-4.51;67.95;100761.56;5028700;28;20136;-47
2021/12/26 07:42:26;;;;;;;5.43;1.90;;;;;;;-4.48;67.82;100756.44;5029985;28;20574;-55
2021/12/26 07:44:54;;;;;;;4.78;1.58;;;;;;;-4.46;67.97;100754.69;5031736;28;20057;-50
2021/12/26 07:47:22;;;;;;;4.00;1.73;;;;;;;-4.47;68.47;100751.28;5031738;28;20136;-51
2021/12/26 07:49:52;;;;;;;6.20;2.13;;;;;;;-4.37;67.91;100754.66;5030372;28;20049;-48
2021/12/26 07:52:24;;;;;;;3.35;1.55;;;;;;;-4.38;67.98;100749.53;5031897;28;20523;-49
2021/12/26 07:54:53;;;;;;;4.25;1.80;;;;;;;-4.36;68.41;100747.81;5030281;28;20057;-55
2021/12/26 07:57:21;;;;;;;4.05;1.83;;;;;;;-4.30;68.18;100740.94;5028555;28;20187;-53
2021/12/26 07:59:49;;;;;;;4.78;2.20;;;;;;;-4.35;68.50;100744.38;5030374;28;20682;-51
2021/12/26 08:02:20;;;;;;;4.97;2.17;;;;;;;-4.34;69.10;100738.41;5031098;28;20053;-53
2021/12/26 08:04:49;;;;;;;3.38;1.85;;;;;;;-4.31;68.76;100744.38;5031877;28;20687;-52
2021/12/26 08:07:19;;;;;;;4.43;1.63;;;;;;;-4.35;69.86;100745.25;5031603;28;20128;-50
2021/12/26 08:09:47;;;;;;;4.15;1.70;;;;;;;-4.27;69.64;100743.50;5031305;28;20042;-52
2021/12/26 08:12:15;;;;;;;4.07;1.60;;;;;;;-4.28;68.94;100746.91;5031111;28;20049;-51
2021/12/26 08:14:43;;;;;;;4.03;1.70;;;;;;;-4.35;69.48;100746.94;5031221;28;20103;-52
2021/12/26 08:17:11;;;;;;;5.85;1.60;;;;;;;-4.31;69.42;100754.66;5030983;28;20041;-54
2021/12/26 08:19:40;;;;;;;5.22;1.55;;;;;;;-4.20;69.59;100748.59;5028189;28;20068;-54
2021/12/26 08:22:08;;;;;;;3.53;1.65;;;;;;;-4.25;69.14;100752.03;5028880;28;20088;-53
2021/12/26 08:24:37;;;;;;;3.88;1.90;;;;;;;-4.21;67.89;100752.00;5031122;28;20136;-53
2021/12/26 08:27:05;;;;;;;4.70;1.70;;;;;;;-4.12;68.82;100751.97;5031376;28;20045;-49
2021/12/26 08:29:33;;;;;;;3.03;1.50;;;;;;;-4.10;69.12;100745.13;5031046;28;20041;-47
2021/12/26 08:32:01;;;;;;;4.22;1.67;;;;;;;-4.02;68.81;100747.63;5030923;28;20099;-53
2021/12/26 08:34:30;;;;;;;4.05;1.65;;;;;;;-3.85;68.94;100756.06;5028495;28;20512;-52
2021/12/26 08:37:02;;;;;;;4.28;1.77;;;;;;;-3.70;68.42;100756.84;5028810;28;20045;-51
2021/12/26 08:39:31;;;;;;;4.72;1.85;;;;;;;-3.73;67.95;100747.41;5031013;28;20052;-51
2021/12/26 08:42:01;;;;;;;3.80;1.65;;;;;;;-3.77;68.26;100759.44;5031143;28;20136;-52
2021/12/26 08:44:32;;;;;;;4.82;1.45;;;;;;;-3.72;67.49;100751.72;5046229;28;20053;-52
2021/12/26 08:47:00;;;;;;;4.45;1.70;;;;;;;-3.69;67.95;100756.81;5027513;28;20057;-52
2021/12/26 08:49:28;;;;;;;4.57;1.83;;;;;;;-3.64;67.49;100754.19;5029508;28;20056;-50
2021/12/26 08:51:57;;;;;;;3.92;1.92;;;;;;;-3.68;67.07;100752.50;5030876;28;20053;-53
2021/12/26 08:54:26;;;;;;;3.33;1.70;;;;;;;-3.72;66.75;100753.41;5031020;28;20084;-54
2021/12/26 08:56:54;;;;;;;5.40;1.98;;;;;;;-3.70;67.63;100760.25;5031120;28;20053;-53
2021/12/26 08:59:24;;;;;;;4.50;1.70;;;;;;;-3.69;67.22;100754.25;5027578;28;20052;-52
2021/12/26 09:01:52;;;;;;;5.43;2.08;;;;;;;-3.74;67.57;100756.88;5027904;28;20042;-50
2021/12/26 09:04:20;;;;;;;9.20;2.40;;;;;;;-3.75;67.23;100759.41;5046067;28;20144;-53
2021/12/26 09:06:48;;;;;;;3.85;1.85;;;;;;;-3.67;67.06;100754.22;5031320;28;20136;-53
2021/12/26 09:09:17;;;;;;;4.68;2.00;;;;;;;-3.59;67.76;100750.72;5034435;28;20064;-50
2021/12/26 09:11:45;;;;;;;6.65;2.10;;;;;;;-3.59;67.06;100749.88;5034326;28;20046;-53
2021/12/26 09:14:13;;;;;;;3.97;2.08;;;;;;;-3.54;66.96;100747.25;5034591;28;20041;-53
2021/12/26 09:16:43;;;;;;;6.00;2.30;;;;;;;-3.61;67.22;100749.91;5034312;28;20488;-54
2021/12/26 09:19:12;;;;;;;4.43;1.90;;;;;;;-3.51;67.52;100749.81;5034166;28;20045;-53
2021/12/26 09:21:40;;;;;;;3.85;1.83;;;;;;;-3.44;67.06;100736.03;5033796;28;20168;-54
2021/12/26 09:24:08;;;;;;;5.10;2.00;;;;;;;-3.35;67.06;100738.53;5034362;28;20110;-54
2021/12/26 09:26:36;;;;;;;6.10;2.20;;;;;;;-3.14;66.91;100737.44;5033856;28;20055;-54
2021/12/26 09:29:04;;;;;;;6.78;2.05;;;;;;;-3.12;66.04;100737.44;5033851;28;20111;-54
2021/12/26 09:31:32;;;;;;;4.63;1.98;;;;;;;-3.15;66.03;100740.91;5033801;28;20053;-53
2021/12/26 09:34:02;;;;;;;4.75;2.08;;;;;;;-3.14;66.66;100741.75;5033871;28;20052;-54
2021/12/26 09:36:30;;;;;;;5.40;2.05;;;;;;;-3.17;65.93;100732.34;5034206;28;20045;-53
2021/12/26 09:38:58;;;;;;;4.38;2.00;;;;;;;-3.27;66.73;100739.31;5033951;28;20056;-53
2021/12/26 09:41:26;;;;;;;6.57;2.25;;;;;;;-3.20;67.13;100731.50;5033857;28;20547;-51
2021/12/26 09:43:54;;;;;;;8.73;2.13;;;;;;;-3.02;67.96;100739.06;5034095;28;20136;-52
2021/12/26 09:46:23;;;;;;;4.80;1.98;;;;;;;-2.91;67.09;100736.38;5031163;28;20492;-51
2021/12/26 09:48:51;;;;;;;7.05;2.85;;;;;;;-3.06;67.95;100732.25;5031337;28;20099;-52
2021/12/26 09:51:21;;;;;;;6.72;2.28;;;;;;;-3.00;67.91;100739.03;5033536;28;20451;-54
2021/12/26 09:53:49;;;;;;;4.55;2.15;;;;;;;-2.96;67.98;100732.97;5033756;28;20049;-53
2021/12/26 09:56:18;;;;;;;6.35;2.28;;;;;;;-2.92;68.35;100729.50;5031741;28;20507;-53
2021/12/26 09:58:55;;;;;;;8.05;2.40;;;;;;;-2.99;68.68;100731.28;5030587;28;20107;-51
2021/12/26 10:01:32;;;;;;;5.40;2.67;;;;;;;-2.91;68.94;100738.94;5032966;28;20045;-53
2021/12/26 10:04:04;;;;;;;5.10;2.20;;;;;;;-2.81;68.39;100744.84;5033780;28;20068;-51
2021/12/26 10:06:34;;;;;;;6.22;2.22;;;;;;;-2.81;68.84;100739.69;5033798;28;20049;-52
2021/12/26 10:09:07;;;;;;;4.85;2.10;;;;;;;-2.65;68.38;100736.06;5031579;28;20365;-54
2021/12/26 10:11:39;;;;;;;4.70;1.90;;;;;;;-2.69;68.90;100729.25;5030827;28;20392;-54
2021/12/26 10:14:10;;;;;;;4.88;2.10;;;;;;;-2.54;68.46;100733.34;5033246;28;20054;-53
2021/12/26 10:16:39;;;;;;;5.18;2.38;;;;;;;-2.55;68.89;100726.50;5033069;28;20053;-54
2021/12/26 10:19:09;;;;;;;6.55;3.00;;;;;;;-2.53;68.54;100726.50;5032012;28;20556;-54
2021/12/26 10:21:43;;;;;;;5.05;2.28;;;;;;;-2.60;68.93;100723.16;5029338;28;20045;-53
2021/12/26 10:24:15;;;;;;;4.53;2.20;;;;;;;-2.58;69.19;100722.25;5044477;28;20041;-53
2021/12/26 10:26:44;;;;;;;7.20;2.85;;;;;;;-2.56;69.41;100717.91;5043629;28;20044;-52
2021/12/26 10:29:19;;;;;;;6.00;2.70;;;;;;;-2.49;69.23;100716.13;5050548;28;20051;-53
2021/12/26 10:31:57;;;;;;;7.25;2.58;;;;;;;-2.54;69.77;100715.31;5044234;28;20041;-55
2021/12/26 10:34:28;;;;;;;6.78;2.70;;;;;;;-2.47;69.50;100711.78;5039491;28;20040;-53
2021/12/26 10:37:00;;;;;;;6.45;2.92;;;;;;;-2.41;69.55;100708.31;5039851;28;20064;-54
2021/12/26 10:39:31;;;;;;;6.82;2.95;;;;;;;-2.35;69.35;100699.63;5049631;28;20571;-52
2021/12/26 10:42:02;;;;;;;8.05;3.33;;;;;;;-2.31;70.15;100703.88;5042987;28;20049;-49
2021/12/26 10:44:36;;;;;;;7.50;2.83;;;;;;;-2.32;70.65;100702.16;5036276;28;20041;-52
2021/12/26 10:47:08;;;;;;;5.32;2.30;;;;;;;-2.19;70.55;100689.97;5056915;28;20473;-50
2021/12/26 10:49:43;;;;;;;5.43;2.27;;;;;;;-2.16;70.36;100684.75;5049959;28;20051;-52
2021/12/26 10:52:19;;;;;;;8.05;2.90;;;;;;;-2.19;70.87;100679.66;5048177;28;20048;-53
2021/12/26 10:54:52;;;;;;;5.63;2.35;;;;;;;-2.17;71.33;100677.91;5040611;28;20508;-52
2021/12/26 10:57:24;;;;;;;7.90;2.92;;;;;;;-2.12;70.71;100674.38;5045039;28;20044;-53
2021/12/26 11:00:19;;;;;;;8.02;2.72;;;;;;;-2.17;71.57;100673.59;5048656;28;20495;-52
2021/12/26 11:02:49;;;;;;;5.55;2.60;;;;;;;-2.14;71.54;100677.84;5049420;28;20037;-51
2021/12/26 11:05:19;;;;;;;7.80;2.75;;;;;;;-2.16;72.08;100675.28;5041451;28;20060;-51
2021/12/26 11:07:52;;;;;;;6.90;3.20;;;;;;;-2.14;71.55;100673.56;5037576;28;20041;-52
2021/12/26 11:10:27;;;;;;;7.32;2.95;;;;;;;-2.10;71.69;100671.75;5050499;28;20041;-52
2021/12/26 11:12:57;;;;;;;15.38;3.05;;;;;;;-2.17;72.65;100665.00;5048278;28;20045;-53
2021/12/26 11:15:27;;;;;;;6.75;3.17;;;;;;;-2.09;72.38;100663.16;5039955;28;20488;-53
2021/12/26 11:17:58;;;;;;;7.78;2.97;;;;;;;-2.06;72.30;100665.69;5048024;28;20071;-54
2021/12/26 11:20:32;;;;;;;7.32;2.90;;;;;;;-2.16;73.66;100659.81;5049573;28;20048;-54
2021/12/26 11:23:09;;;;;;;7.30;3.10;;;;;;;-2.11;73.12;100652.03;5043225;28;20512;-52
2021/12/26 11:25:43;;;;;;;8.30;3.33;;;;;;;-2.07;73.92;100653.69;5039173;28;20442;-54
2021/12/26 11:28:12;;;;;;;7.45;2.88;;;;;;;-2.01;73.79;100658.75;5036054;28;20069;-51
2021/12/26 11:30:42;;;;;;;7.40;3.40;;;;;;;-2.04;74.19;100645.91;5048463;28;20498;-54
2021/12/26 11:33:11;;;;;;;9.48;3.47;;;;;;;-1.98;73.71;100648.38;5045384;28;20053;-53
2021/12/26 11:35:40;;;;;;;5.47;2.80;;;;;;;-2.00;74.52;100649.25;5048685;28;20083;-52
2021/12/26 11:38:16;;;;;;;9.00;3.47;;;;;;;-1.98;74.63;100643.22;5046774;28;20049;-56
2021/12/26 11:40:45;;;;;;;6.30;3.20;;;;;;;-1.93;74.82;100633.69;5048772;28;20053;-53